METAR Formatted Surface Weather Observation
Issued by NWS Missoula, MT

Home | Current Version | Previous Version | Text Only | Print | Product List | Glossary On
Versions: 1 2 3 4 5 6 7 8 9
000
SAUS45 KMSO 122058
MTRGPI
METAR KGPI 122055Z VRB03KT 10SM CLR 31/08 A3018 RMK AO2 SLP200
T03110078 57011



USA.gov is the U.S. government's official web portal to all federal, state and local government web resources and services.